sensor_id;sensor_type;location;lat;lon;timestamp;P1;durP1;ratioP1;P2;durP2;ratioP2
15921;SDS011;8060;50.948;3.146;2023-06-14T04:06:37;14.03;;;9.90;;
15921;SDS011;8060;50.948;3.146;2023-06-14T04:09:07;16.23;;;9.67;;
15921;SDS011;8060;50.948;3.146;2023-06-14T04:11:35;14.03;;;9.00;;
15921;SDS011;8060;50.948;3.146;2023-06-14T04:14:03;20.43;;;9.73;;
15921;SDS011;8060;50.948;3.146;2023-06-14T04:16:33;19.10;;;9.90;;
15921;SDS011;8060;50.948;3.146;2023-06-14T04:19:01;15.10;;;9.50;;
15921;SDS011;8060;50.948;3.146;2023-06-14T04:21:29;18.43;;;9.27;;
15921;SDS011;8060;50.948;3.146;2023-06-14T04:24:03;15.83;;;9.87;;
15921;SDS011;8060;50.948;3.146;2023-06-14T04:26:31;15.23;;;9.37;;
15921;SDS011;8060;50.948;3.146;2023-06-14T04:29:00;15.27;;;10.07;;
15921;SDS011;8060;50.948;3.146;2023-06-14T04:31:28;12.20;;;9.60;;
15921;SDS011;8060;50.948;3.146;2023-06-14T04:34:00;14.93;;;9.27;;
15921;SDS011;8060;50.948;3.146;2023-06-14T04:36:32;11.97;;;9.30;;
15921;SDS011;8060;50.948;3.146;2023-06-14T04:39:04;15.20;;;9.50;;
15921;SDS011;8060;50.948;3.146;2023-06-14T04:41:32;15.70;;;9.20;;
15921;SDS011;8060;50.948;3.146;2023-06-14T04:44:01;18.47;;;9.03;;
15921;SDS011;8060;50.948;3.146;2023-06-14T04:46:29;16.73;;;9.13;;
15921;SDS011;8060;50.948;3.146;2023-06-14T04:48:58;19.77;;;9.13;;
15921;SDS011;8060;50.948;3.146;2023-06-14T04:51:28;14.83;;;8.73;;
15921;SDS011;8060;50.948;3.146;2023-06-14T04:53:57;12.67;;;9.07;;
15921;SDS011;8060;50.948;3.146;2023-06-14T04:56:27;17.17;;;8.53;;
15921;SDS011;8060;50.948;3.146;2023-06-14T04:58:56;17.57;;;8.57;;
15921;SDS011;8060;50.948;3.146;2023-06-14T05:01:24;16.77;;;8.57;;
15921;SDS011;8060;50.948;3.146;2023-06-14T05:03:52;19.57;;;8.90;;
15921;SDS011;8060;50.948;3.146;2023-06-14T05:06:21;14.33;;;8.80;;
15921;SDS011;8060;50.948;3.146;2023-06-14T05:08:49;15.07;;;8.97;;
15921;SDS011;8060;50.948;3.146;2023-06-14T05:11:17;13.00;;;8.30;;
15921;SDS011;8060;50.948;3.146;2023-06-14T05:13:47;14.93;;;8.43;;
15921;SDS011;8060;50.948;3.146;2023-06-14T05:16:16;12.23;;;9.10;;
15921;SDS011;8060;50.948;3.146;2023-06-14T05:18:45;17.90;;;9.07;;
15921;SDS011;8060;50.948;3.146;2023-06-14T05:21:14;13.27;;;9.00;;
15921;SDS011;8060;50.948;3.146;2023-06-14T05:23:44;15.87;;;8.80;;
15921;SDS011;8060;50.948;3.146;2023-06-14T05:26:12;15.37;;;8.93;;
15921;SDS011;8060;50.948;3.146;2023-06-14T05:28:41;13.47;;;8.60;;
15921;SDS011;8060;50.948;3.146;2023-06-14T05:31:10;17.17;;;9.40;;
15921;SDS011;8060;50.948;3.146;2023-06-14T05:33:38;15.23;;;8.90;;
15921;SDS011;8060;50.948;3.146;2023-06-14T05:36:06;14.70;;;8.83;;
15921;SDS011;8060;50.948;3.146;2023-06-14T05:38:34;13.73;;;8.47;;
15921;SDS011;8060;50.948;3.146;2023-06-14T05:41:03;17.10;;;8.57;;
15921;SDS011;8060;50.948;3.146;2023-06-14T05:43:31;14.27;;;9.00;;
15921;SDS011;8060;50.948;3.146;2023-06-14T05:45:59;15.10;;;8.67;;
15921;SDS011;8060;50.948;3.146;2023-06-14T05:48:29;18.87;;;8.57;;
15921;SDS011;8060;50.948;3.146;2023-06-14T05:50:58;15.60;;;9.07;;
15921;SDS011;8060;50.948;3.146;2023-06-14T05:53:27;19.03;;;8.57;;
15921;SDS011;8060;50.948;3.146;2023-06-14T05:55:55;14.60;;;8.43;;
15921;SDS011;8060;50.948;3.146;2023-06-14T05:58:23;17.60;;;8.83;;
15921;SDS011;8060;50.948;3.146;2023-06-14T06:00:51;15.37;;;9.30;;
15921;SDS011;8060;50.948;3.146;2023-06-14T06:03:19;14.83;;;8.47;;
15921;SDS011;8060;50.948;3.146;2023-06-14T06:05:50;14.63;;;8.87;;
15921;SDS011;8060;50.948;3.146;2023-06-14T06:08:18;12.83;;;8.73;;
15921;SDS011;8060;50.948;3.146;2023-06-14T06:13:39;15.23;;;8.70;;
15921;SDS011;8060;50.948;3.146;2023-06-14T06:16:08;14.93;;;8.77;;
15921;SDS011;8060;50.948;3.146;2023-06-14T06:18:36;17.87;;;8.30;;
15921;SDS011;8060;50.948;3.146;2023-06-14T06:21:06;16.63;;;8.70;;
15921;SDS011;8060;50.948;3.146;2023-06-14T06:23:34;15.33;;;8.37;;
15921;SDS011;8060;50.948;3.146;2023-06-14T06:26:03;11.60;;;8.47;;
15921;SDS011;8060;50.948;3.146;2023-06-14T06:28:31;13.47;;;7.67;;
15921;SDS011;8060;50.948;3.146;2023-06-14T06:30:59;11.50;;;7.97;;
15921;SDS011;8060;50.948;3.146;2023-06-14T06:33:30;17.47;;;8.00;;
15921;SDS011;8060;50.948;3.146;2023-06-14T06:35:58;13.73;;;7.90;;
15921;SDS011;8060;50.948;3.146;2023-06-14T06:38:28;16.07;;;8.00;;
15921;SDS011;8060;50.948;3.146;2023-06-14T06:40:56;14.90;;;7.70;;
15921;SDS011;8060;50.948;3.146;2023-06-14T06:43:24;13.47;;;7.57;;
15921;SDS011;8060;50.948;3.146;2023-06-14T06:45:52;19.63;;;8.63;;
15921;SDS011;8060;50.948;3.146;2023-06-14T06:48:20;15.23;;;8.57;;
15921;SDS011;8060;50.948;3.146;2023-06-14T06:50:48;17.77;;;8.20;;
15921;SDS011;8060;50.948;3.146;2023-06-14T06:53:17;12.60;;;7.90;;
15921;SDS011;8060;50.948;3.146;2023-06-14T06:55:57;17.40;;;8.02;;
15921;SDS011;8060;50.948;3.146;2023-06-14T06:58:25;19.90;;;8.57;;
15921;SDS011;8060;50.948;3.146;2023-06-14T07:00:53;15.18;;;8.90;;
15921;SDS011;8060;50.948;3.146;2023-06-14T07:03:22;11.73;;;7.95;;
15921;SDS011;8060;50.948;3.146;2023-06-14T07:05:50;16.33;;;8.27;;
15921;SDS011;8060;50.948;3.146;2023-06-14T07:08:18;14.82;;;8.85;;
15921;SDS011;8060;50.948;3.146;2023-06-14T07:10:46;17.33;;;8.95;;
15921;SDS011;8060;50.948;3.146;2023-06-14T07:13:16;14.60;;;8.95;;
15921;SDS011;8060;50.948;3.146;2023-06-14T07:15:44;16.35;;;8.02;;
15921;SDS011;8060;50.948;3.146;2023-06-14T07:18:12;14.63;;;9.18;;
15921;SDS011;8060;50.948;3.146;2023-06-14T07:20:42;13.93;;;8.45;;
15921;SDS011;8060;50.948;3.146;2023-06-14T07:23:10;15.05;;;8.05;;
15921;SDS011;8060;50.948;3.146;2023-06-14T07:25:38;11.95;;;8.32;;
15921;SDS011;8060;50.948;3.146;2023-06-14T07:28:06;17.27;;;8.13;;
15921;SDS011;8060;50.948;3.146;2023-06-14T07:30:36;13.77;;;7.28;;
15921;SDS011;8060;50.948;3.146;2023-06-14T07:33:04;19.73;;;7.43;;
15921;SDS011;8060;50.948;3.146;2023-06-14T07:35:32;17.55;;;7.25;;
15921;SDS011;8060;50.948;3.146;2023-06-14T07:38:01;16.15;;;7.30;;
15921;SDS011;8060;50.948;3.146;2023-06-14T07:40:29;14.65;;;7.10;;
15921;SDS011;8060;50.948;3.146;2023-06-14T07:42:57;16.20;;;6.65;;
15921;SDS011;8060;50.948;3.146;2023-06-14T07:45:25;11.32;;;6.45;;
15921;SDS011;8060;50.948;3.146;2023-06-14T07:47:55;15.55;;;6.40;;
15921;SDS011;8060;50.948;3.146;2023-06-14T07:50:23;11.30;;;6.18;;
15921;SDS011;8060;50.948;3.146;2023-06-14T07:52:52;10.90;;;6.38;;
15921;SDS011;8060;50.948;3.146;2023-06-14T07:55:20;10.63;;;6.47;;
15921;SDS011;8060;50.948;3.146;2023-06-14T07:57:48;14.48;;;6.47;;
15921;SDS011;8060;50.948;3.146;2023-06-14T08:00:17;10.15;;;6.20;;
15921;SDS011;8060;50.948;3.146;2023-06-14T08:02:46;13.75;;;6.63;;
15921;SDS011;8060;50.948;3.146;2023-06-14T08:05:16;13.35;;;6.28;;
15921;SDS011;8060;50.948;3.146;2023-06-14T08:07:44;12.02;;;5.88;;
15921;SDS011;8060;50.948;3.146;2023-06-14T08:10:12;11.02;;;6.07;;
15921;SDS011;8060;50.948;3.146;2023-06-14T08:12:41;14.55;;;6.47;;
15921;SDS011;8060;50.948;3.146;2023-06-14T08:15:09;9.10;;;6.32;;
15921;SDS011;8060;50.948;3.146;2023-06-14T08:17:40;8.32;;;5.75;;
15921;SDS011;8060;50.948;3.146;2023-06-14T08:20:10;9.70;;;6.07;;
15921;SDS011;8060;50.948;3.146;2023-06-14T08:22:40;11.95;;;6.65;;
15921;SDS011;8060;50.948;3.146;2023-06-14T08:25:09;10.05;;;5.97;;
15921;SDS011;8060;50.948;3.146;2023-06-14T08:27:39;12.32;;;6.70;;
15921;SDS011;8060;50.948;3.146;2023-06-14T08:30:08;10.50;;;6.18;;
15921;SDS011;8060;50.948;3.146;2023-06-14T08:32:37;13.85;;;6.28;;
15921;SDS011;8060;50.948;3.146;2023-06-14T08:35:05;8.65;;;5.63;;
15921;SDS011;8060;50.948;3.146;2023-06-14T08:37:37;18.95;;;6.82;;
15921;SDS011;8060;50.948;3.146;2023-06-14T08:40:12;14.93;;;6.72;;
15921;SDS011;8060;50.948;3.146;2023-06-14T08:42:47;19.92;;;7.57;;
15921;SDS011;8060;50.948;3.146;2023-06-14T08:45:18;14.20;;;6.88;;
15921;SDS011;8060;50.948;3.146;2023-06-14T08:47:51;11.88;;;6.20;;
15921;SDS011;8060;50.948;3.146;2023-06-14T08:50:25;13.48;;;6.15;;
15921;SDS011;8060;50.948;3.146;2023-06-14T08:53:00;11.50;;;5.88;;
15921;SDS011;8060;50.948;3.146;2023-06-14T08:55:30;11.05;;;5.57;;
15921;SDS011;8060;50.948;3.146;2023-06-14T08:58:03;13.25;;;5.82;;
15921;SDS011;8060;50.948;3.146;2023-06-14T09:00:32;16.98;;;6.07;;
15921;SDS011;8060;50.948;3.146;2023-06-14T09:03:01;9.85;;;5.82;;
15921;SDS011;8060;50.948;3.146;2023-06-14T09:05:30;11.00;;;5.55;;
15921;SDS011;8060;50.948;3.146;2023-06-14T09:07:59;6.55;;;4.50;;
15921;SDS011;8060;50.948;3.146;2023-06-14T09:10:32;13.13;;;5.28;;
15921;SDS011;8060;50.948;3.146;2023-06-14T09:13:01;10.40;;;5.43;;
15921;SDS011;8060;50.948;3.146;2023-06-14T09:15:30;16.83;;;5.82;;
15921;SDS011;8060;50.948;3.146;2023-06-14T09:18:00;8.43;;;4.85;;
15921;SDS011;8060;50.948;3.146;2023-06-14T09:20:32;8.40;;;4.80;;
15921;SDS011;8060;50.948;3.146;2023-06-14T09:23:02;7.45;;;4.80;;
15921;SDS011;8060;50.948;3.146;2023-06-14T09:25:32;9.07;;;5.25;;
15921;SDS011;8060;50.948;3.146;2023-06-14T09:28:06;12.20;;;5.25;;
15921;SDS011;8060;50.948;3.146;2023-06-14T09:30:36;9.63;;;5.15;;
15921;SDS011;8060;50.948;3.146;2023-06-14T09:33:05;10.50;;;5.05;;
15921;SDS011;8060;50.948;3.146;2023-06-14T09:35:33;10.73;;;5.13;;
15921;SDS011;8060;50.948;3.146;2023-06-14T09:38:03;7.50;;;4.85;;
15921;SDS011;8060;50.948;3.146;2023-06-14T09:40:33;8.95;;;4.88;;
15921;SDS011;8060;50.948;3.146;2023-06-14T09:43:04;8.38;;;5.35;;
15921;SDS011;8060;50.948;3.146;2023-06-14T09:45:35;34.20;;;11.88;;
15921;SDS011;8060;50.948;3.146;2023-06-14T09:48:06;6.63;;;5.05;;
15921;SDS011;8060;50.948;3.146;2023-06-14T09:50:35;10.25;;;5.05;;
15921;SDS011;8060;50.948;3.146;2023-06-14T09:53:06;7.57;;;4.82;;
15921;SDS011;8060;50.948;3.146;2023-06-14T09:55:37;11.23;;;4.90;;
15921;SDS011;8060;50.948;3.146;2023-06-14T09:58:09;7.53;;;5.07;;
15921;SDS011;8060;50.948;3.146;2023-06-14T10:00:38;9.90;;;5.03;;
15921;SDS011;8060;50.948;3.146;2023-06-14T10:03:11;8.23;;;4.72;;
15921;SDS011;8060;50.948;3.146;2023-06-14T10:05:41;13.50;;;4.90;;
15921;SDS011;8060;50.948;3.146;2023-06-14T10:08:14;6.70;;;4.88;;
15921;SDS011;8060;50.948;3.146;2023-06-14T10:10:45;8.80;;;5.20;;
15921;SDS011;8060;50.948;3.146;2023-06-14T10:13:14;9.18;;;5.38;;
15921;SDS011;8060;50.948;3.146;2023-06-14T10:15:44;5.93;;;4.90;;
15921;SDS011;8060;50.948;3.146;2023-06-14T10:18:22;6.32;;;4.80;;
15921;SDS011;8060;50.948;3.146;2023-06-14T10:21:01;8.68;;;4.90;;
15921;SDS011;8060;50.948;3.146;2023-06-14T10:23:37;7.47;;;4.70;;
15921;SDS011;8060;50.948;3.146;2023-06-14T10:26:13;9.73;;;5.28;;
15921;SDS011;8060;50.948;3.146;2023-06-14T10:28:58;5.22;;;4.60;;
15921;SDS011;8060;50.948;3.146;2023-06-14T10:31:41;13.77;;;5.15;;
15921;SDS011;8060;50.948;3.146;2023-06-14T10:34:10;5.25;;;4.45;;
15921;SDS011;8060;50.948;3.146;2023-06-14T10:36:40;15.75;;;5.07;;
15921;SDS011;8060;50.948;3.146;2023-06-14T10:39:12;12.32;;;5.30;;
15921;SDS011;8060;50.948;3.146;2023-06-14T10:41:50;7.80;;;4.85;;
15921;SDS011;8060;50.948;3.146;2023-06-14T10:47:25;9.50;;;4.88;;
15921;SDS011;8060;50.948;3.146;2023-06-14T10:49:54;6.32;;;4.68;;
15921;SDS011;8060;50.948;3.146;2023-06-14T10:52:24;7.03;;;4.78;;
15921;SDS011;8060;50.948;3.146;2023-06-14T10:57:46;10.68;;;4.80;;
15921;SDS011;8060;50.948;3.146;2023-06-14T11:00:21;11.23;;;5.40;;
15921;SDS011;8060;50.948;3.146;2023-06-14T11:03:04;9.80;;;5.47;;
15921;SDS011;8060;50.948;3.146;2023-06-14T11:06:11;7.60;;;4.43;;
15921;SDS011;8060;50.948;3.146;2023-06-14T11:11:47;11.82;;;4.93;;
15921;SDS011;8060;50.948;3.146;2023-06-14T11:14:16;8.88;;;4.82;;
15921;SDS011;8060;50.948;3.146;2023-06-14T11:16:47;8.55;;;4.85;;
15921;SDS011;8060;50.948;3.146;2023-06-14T11:19:16;5.90;;;4.70;;
15921;SDS011;8060;50.948;3.146;2023-06-14T11:21:46;6.68;;;4.80;;
15921;SDS011;8060;50.948;3.146;2023-06-14T11:24:15;11.93;;;6.22;;
15921;SDS011;8060;50.948;3.146;2023-06-14T11:26:44;11.43;;;4.60;;
15921;SDS011;8060;50.948;3.146;2023-06-14T11:29:16;7.43;;;5.22;;
15921;SDS011;8060;50.948;3.146;2023-06-14T11:31:44;7.95;;;4.93;;
15921;SDS011;8060;50.948;3.146;2023-06-14T11:34:13;10.43;;;4.90;;
15921;SDS011;8060;50.948;3.146;2023-06-14T11:36:42;6.50;;;4.63;;
15921;SDS011;8060;50.948;3.146;2023-06-14T11:39:12;8.18;;;4.78;;
15921;SDS011;8060;50.948;3.146;2023-06-14T11:41:40;6.43;;;4.45;;
15921;SDS011;8060;50.948;3.146;2023-06-14T11:44:10;8.35;;;4.82;;
15921;SDS011;8060;50.948;3.146;2023-06-14T11:46:40;8.98;;;4.32;;
15921;SDS011;8060;50.948;3.146;2023-06-14T11:49:08;7.60;;;4.78;;
15921;SDS011;8060;50.948;3.146;2023-06-14T11:51:36;6.07;;;4.90;;
15921;SDS011;8060;50.948;3.146;2023-06-14T11:54:05;8.15;;;4.60;;
15921;SDS011;8060;50.948;3.146;2023-06-14T11:56:34;10.43;;;4.63;;
15921;SDS011;8060;50.948;3.146;2023-06-14T11:59:03;5.95;;;4.28;;
15921;SDS011;8060;50.948;3.146;2023-06-14T12:01:35;11.30;;;4.93;;
15921;SDS011;8060;50.948;3.146;2023-06-14T12:04:07;9.57;;;4.40;;
15921;SDS011;8060;50.948;3.146;2023-06-14T12:06:35;12.38;;;4.80;;
15921;SDS011;8060;50.948;3.146;2023-06-14T12:09:06;8.20;;;3.75;;
15921;SDS011;8060;50.948;3.146;2023-06-14T12:11:39;10.90;;;4.90;;
15921;SDS011;8060;50.948;3.146;2023-06-14T12:14:08;7.30;;;4.40;;
15921;SDS011;8060;50.948;3.146;2023-06-14T12:16:37;7.70;;;4.40;;
15921;SDS011;8060;50.948;3.146;2023-06-14T12:19:11;7.28;;;4.20;;
15921;SDS011;8060;50.948;3.146;2023-06-14T12:21:41;9.82;;;4.95;;
15921;SDS011;8060;50.948;3.146;2023-06-14T12:24:09;7.75;;;4.65;;
15921;SDS011;8060;50.948;3.146;2023-06-14T12:26:40;8.63;;;4.32;;
15921;SDS011;8060;50.948;3.146;2023-06-14T12:29:09;6.22;;;4.35;;
15921;SDS011;8060;50.948;3.146;2023-06-14T12:31:39;8.57;;;4.32;;
15921;SDS011;8060;50.948;3.146;2023-06-14T12:34:09;8.40;;;4.22;;
15921;SDS011;8060;50.948;3.146;2023-06-14T12:36:38;9.60;;;4.95;;
15921;SDS011;8060;50.948;3.146;2023-06-14T12:39:11;9.15;;;4.40;;
15921;SDS011;8060;50.948;3.146;2023-06-14T12:41:39;6.57;;;3.90;;
15921;SDS011;8060;50.948;3.146;2023-06-14T12:44:08;5.65;;;4.20;;
15921;SDS011;8060;50.948;3.146;2023-06-14T12:46:37;7.45;;;4.70;;
15921;SDS011;8060;50.948;3.146;2023-06-14T12:49:07;6.15;;;4.00;;
15921;SDS011;8060;50.948;3.146;2023-06-14T12:51:37;7.18;;;4.25;;
15921;SDS011;8060;50.948;3.146;2023-06-14T12:54:06;6.78;;;4.25;;
15921;SDS011;8060;50.948;3.146;2023-06-14T12:56:35;8.77;;;4.70;;
15921;SDS011;8060;50.948;3.146;2023-06-14T12:59:03;8.88;;;4.30;;
15921;SDS011;8060;50.948;3.146;2023-06-14T13:01:32;11.38;;;4.40;;
15921;SDS011;8060;50.948;3.146;2023-06-14T13:04:01;14.10;;;4.78;;
15921;SDS011;8060;50.948;3.146;2023-06-14T13:06:30;8.25;;;4.38;;
15921;SDS011;8060;50.948;3.146;2023-06-14T13:08:59;6.70;;;4.35;;
15921;SDS011;8060;50.948;3.146;2023-06-14T13:11:28;9.85;;;4.30;;
15921;SDS011;8060;50.948;3.146;2023-06-14T13:13:56;8.85;;;4.80;;
15921;SDS011;8060;50.948;3.146;2023-06-14T13:16:27;9.40;;;4.15;;
15921;SDS011;8060;50.948;3.146;2023-06-14T13:18:55;12.30;;;4.30;;
15921;SDS011;8060;50.948;3.146;2023-06-14T13:21:23;9.82;;;4.57;;
15921;SDS011;8060;50.948;3.146;2023-06-14T13:23:53;9.52;;;5.13;;
15921;SDS011;8060;50.948;3.146;2023-06-14T13:26:21;9.15;;;4.63;;
15921;SDS011;8060;50.948;3.146;2023-06-14T13:28:49;8.82;;;4.57;;
15921;SDS011;8060;50.948;3.146;2023-06-14T13:31:18;6.72;;;4.10;;
15921;SDS011;8060;50.948;3.146;2023-06-14T13:33:46;5.20;;;3.97;;
15921;SDS011;8060;50.948;3.146;2023-06-14T13:36:14;7.15;;;4.35;;
15921;SDS011;8060;50.948;3.146;2023-06-14T13:38:42;9.25;;;4.68;;
15921;SDS011;8060;50.948;3.146;2023-06-14T13:41:15;8.40;;;4.90;;
15921;SDS011;8060;50.948;3.146;2023-06-14T13:43:43;6.15;;;4.05;;
15921;SDS011;8060;50.948;3.146;2023-06-14T13:46:11;7.15;;;4.18;;
15921;SDS011;8060;50.948;3.146;2023-06-14T13:48:40;5.32;;;4.38;;
15921;SDS011;8060;50.948;3.146;2023-06-14T13:51:08;7.90;;;4.57;;
15921;SDS011;8060;50.948;3.146;2023-06-14T13:53:37;6.25;;;4.32;;
15921;SDS011;8060;50.948;3.146;2023-06-14T13:56:06;10.23;;;4.28;;
15921;SDS011;8060;50.948;3.146;2023-06-14T13:58:35;8.80;;;4.43;;
15921;SDS011;8060;50.948;3.146;2023-06-14T14:01:04;11.68;;;4.60;;
15921;SDS011;8060;50.948;3.146;2023-06-14T14:03:33;8.02;;;4.38;;
15921;SDS011;8060;50.948;3.146;2023-06-14T14:06:02;9.40;;;4.70;;
15921;SDS011;8060;50.948;3.146;2023-06-14T14:08:32;7.18;;;4.25;;
15921;SDS011;8060;50.948;3.146;2023-06-14T14:11:00;12.18;;;4.53;;
15921;SDS011;8060;50.948;3.146;2023-06-14T14:13:28;8.77;;;4.25;;
15921;SDS011;8060;50.948;3.146;2023-06-14T14:15:58;9.65;;;4.13;;
15921;SDS011;8060;50.948;3.146;2023-06-14T14:18:26;6.43;;;4.13;;
15921;SDS011;8060;50.948;3.146;2023-06-14T14:20:57;8.07;;;4.78;;
15921;SDS011;8060;50.948;3.146;2023-06-14T14:23:27;5.45;;;4.43;;
15921;SDS011;8060;50.948;3.146;2023-06-14T14:25:55;8.95;;;4.70;;
15921;SDS011;8060;50.948;3.146;2023-06-14T14:28:24;7.38;;;4.60;;
15921;SDS011;8060;50.948;3.146;2023-06-14T14:30:52;11.60;;;4.80;;
15921;SDS011;8060;50.948;3.146;2023-06-14T14:33:21;8.40;;;4.60;;
15921;SDS011;8060;50.948;3.146;2023-06-14T14:35:50;8.57;;;4.80;;
15921;SDS011;8060;50.948;3.146;2023-06-14T14:38:18;7.25;;;4.32;;
15921;SDS011;8060;50.948;3.146;2023-06-14T14:40:46;6.53;;;4.50;;
15921;SDS011;8060;50.948;3.146;2023-06-14T14:43:14;9.63;;;4.72;;
15921;SDS011;8060;50.948;3.146;2023-06-14T14:45:42;10.93;;;4.50;;
15921;SDS011;8060;50.948;3.146;2023-06-14T14:48:10;7.00;;;4.13;;
15921;SDS011;8060;50.948;3.146;2023-06-14T14:50:40;7.93;;;4.30;;
15921;SDS011;8060;50.948;3.146;2023-06-14T14:53:08;7.35;;;4.28;;
15921;SDS011;8060;50.948;3.146;2023-06-14T14:55:36;7.63;;;4.80;;
15921;SDS011;8060;50.948;3.146;2023-06-14T14:58:05;8.95;;;4.30;;
15921;SDS011;8060;50.948;3.146;2023-06-14T15:00:34;8.35;;;4.60;;
15921;SDS011;8060;50.948;3.146;2023-06-14T15:03:03;9.27;;;4.47;;
15921;SDS011;8060;50.948;3.146;2023-06-14T15:05:31;10.05;;;4.40;;
15921;SDS011;8060;50.948;3.146;2023-06-14T15:08:00;7.78;;;4.88;;
15921;SDS011;8060;50.948;3.146;2023-06-14T15:10:29;8.70;;;4.85;;
15921;SDS011;8060;50.948;3.146;2023-06-14T15:12:57;12.43;;;4.75;;
15921;SDS011;8060;50.948;3.146;2023-06-14T15:15:25;11.38;;;4.38;;
15921;SDS011;8060;50.948;3.146;2023-06-14T15:17:53;10.27;;;4.53;;
15921;SDS011;8060;50.948;3.146;2023-06-14T15:20:21;10.43;;;4.28;;
15921;SDS011;8060;50.948;3.146;2023-06-14T15:22:49;7.65;;;3.80;;
15921;SDS011;8060;50.948;3.146;2023-06-14T15:25:19;7.40;;;4.10;;
15921;SDS011;8060;50.948;3.146;2023-06-14T15:27:53;9.52;;;4.35;;
15921;SDS011;8060;50.948;3.146;2023-06-14T15:30:23;7.82;;;4.30;;
15921;SDS011;8060;50.948;3.146;2023-06-14T15:32:51;11.70;;;4.53;;
15921;SDS011;8060;50.948;3.146;2023-06-14T15:35:19;16.45;;;4.28;;
15921;SDS011;8060;50.948;3.146;2023-06-14T15:37:48;12.55;;;4.55;;
15921;SDS011;8060;50.948;3.146;2023-06-14T15:40:16;9.95;;;4.25;;
15921;SDS011;8060;50.948;3.146;2023-06-14T15:42:46;12.07;;;4.18;;
15921;SDS011;8060;50.948;3.146;2023-06-14T15:45:14;9.02;;;4.40;;
15921;SDS011;8060;50.948;3.146;2023-06-14T15:47:43;8.40;;;3.92;;
15921;SDS011;8060;50.948;3.146;2023-06-14T15:50:11;11.27;;;4.15;;
15921;SDS011;8060;50.948;3.146;2023-06-14T15:52:39;8.30;;;3.67;;
15921;SDS011;8060;50.948;3.146;2023-06-14T15:55:08;9.68;;;4.50;;
15921;SDS011;8060;50.948;3.146;2023-06-14T15:57:36;11.82;;;4.38;;
15921;SDS011;8060;50.948;3.146;2023-06-14T16:00:06;9.35;;;4.30;;
15921;SDS011;8060;50.948;3.146;2023-06-14T16:02:35;9.60;;;3.88;;
15921;SDS011;8060;50.948;3.146;2023-06-14T16:05:04;10.10;;;3.95;;
15921;SDS011;8060;50.948;3.146;2023-06-14T16:07:32;5.65;;;3.88;;
15921;SDS011;8060;50.948;3.146;2023-06-14T16:10:00;8.80;;;4.22;;
15921;SDS011;8060;50.948;3.146;2023-06-14T16:12:29;13.82;;;4.47;;
15921;SDS011;8060;50.948;3.146;2023-06-14T16:14:57;9.68;;;4.13;;
15921;SDS011;8060;50.948;3.146;2023-06-14T16:17:26;7.85;;;3.83;;
15921;SDS011;8060;50.948;3.146;2023-06-14T16:19:54;10.68;;;4.30;;
15921;SDS011;8060;50.948;3.146;2023-06-14T16:22:22;11.55;;;3.92;;
15921;SDS011;8060;50.948;3.146;2023-06-14T16:24:50;9.98;;;4.05;;
15921;SDS011;8060;50.948;3.146;2023-06-14T16:27:19;7.78;;;4.40;;
15921;SDS011;8060;50.948;3.146;2023-06-14T16:29:47;6.38;;;4.03;;
15921;SDS011;8060;50.948;3.146;2023-06-14T16:32:16;6.82;;;3.78;;
15921;SDS011;8060;50.948;3.146;2023-06-14T16:34:45;9.00;;;4.07;;
15921;SDS011;8060;50.948;3.146;2023-06-14T16:37:14;6.60;;;4.07;;
15921;SDS011;8060;50.948;3.146;2023-06-14T16:39:42;7.05;;;3.17;;
15921;SDS011;8060;50.948;3.146;2023-06-14T16:42:10;5.50;;;3.30;;
15921;SDS011;8060;50.948;3.146;2023-06-14T16:44:38;5.65;;;3.10;;
15921;SDS011;8060;50.948;3.146;2023-06-14T16:47:06;7.60;;;3.47;;
15921;SDS011;8060;50.948;3.146;2023-06-14T16:49:36;4.90;;;3.30;;
15921;SDS011;8060;50.948;3.146;2023-06-14T16:52:06;6.82;;;3.60;;
15921;SDS011;8060;50.948;3.146;2023-06-14T16:54:35;6.70;;;3.08;;
15921;SDS011;8060;50.948;3.146;2023-06-14T16:57:03;6.07;;;3.08;;
15921;SDS011;8060;50.948;3.146;2023-06-14T16:59:31;6.53;;;3.10;;
15921;SDS011;8060;50.948;3.146;2023-06-14T17:02:03;4.82;;;2.83;;
15921;SDS011;8060;50.948;3.146;2023-06-14T17:04:32;5.93;;;2.70;;
15921;SDS011;8060;50.948;3.146;2023-06-14T17:07:00;8.25;;;3.03;;
15921;SDS011;8060;50.948;3.146;2023-06-14T17:09:31;6.72;;;2.60;;
15921;SDS011;8060;50.948;3.146;2023-06-14T17:11:59;6.22;;;2.67;;
15921;SDS011;8060;50.948;3.146;2023-06-14T17:14:28;6.22;;;3.03;;
15921;SDS011;8060;50.948;3.146;2023-06-14T17:16:56;6.13;;;3.00;;
15921;SDS011;8060;50.948;3.146;2023-06-14T17:19:24;6.45;;;2.58;;
15921;SDS011;8060;50.948;3.146;2023-06-14T17:21:52;8.20;;;2.97;;
15921;SDS011;8060;50.948;3.146;2023-06-14T17:24:21;5.03;;;2.40;;
15921;SDS011;8060;50.948;3.146;2023-06-14T17:26:54;5.10;;;2.55;;
15921;SDS011;8060;50.948;3.146;2023-06-14T17:29:23;3.13;;;2.50;;
15921;SDS011;8060;50.948;3.146;2023-06-14T17:31:52;4.50;;;2.35;;
15921;SDS011;8060;50.948;3.146;2023-06-14T17:34:21;4.47;;;2.30;;
15921;SDS011;8060;50.948;3.146;2023-06-14T17:36:49;7.68;;;2.30;;
15921;SDS011;8060;50.948;3.146;2023-06-14T17:39:17;6.43;;;2.50;;
15921;SDS011;8060;50.948;3.146;2023-06-14T17:41:46;4.13;;;2.30;;
15921;SDS011;8060;50.948;3.146;2023-06-14T17:44:15;9.27;;;2.40;;
15921;SDS011;8060;50.948;3.146;2023-06-14T17:46:43;5.95;;;2.53;;
15921;SDS011;8060;50.948;3.146;2023-06-14T17:49:11;9.18;;;2.83;;
15921;SDS011;8060;50.948;3.146;2023-06-14T17:51:39;3.28;;;2.30;;
15921;SDS011;8060;50.948;3.146;2023-06-14T17:54:07;5.82;;;2.85;;
15921;SDS011;8060;50.948;3.146;2023-06-14T17:56:36;8.10;;;2.70;;
15921;SDS011;8060;50.948;3.146;2023-06-14T17:59:04;3.85;;;2.45;;
15921;SDS011;8060;50.948;3.146;2023-06-14T18:01:33;4.90;;;2.40;;
15921;SDS011;8060;50.948;3.146;2023-06-14T18:04:02;8.05;;;2.42;;
15921;SDS011;8060;50.948;3.146;2023-06-14T18:06:30;3.42;;;2.05;;
15921;SDS011;8060;50.948;3.146;2023-06-14T18:08:58;2.30;;;2.05;;
15921;SDS011;8060;50.948;3.146;2023-06-14T18:11:27;5.78;;;2.58;;
15921;SDS011;8060;50.948;3.146;2023-06-14T18:13:57;3.28;;;2.05;;
15921;SDS011;8060;50.948;3.146;2023-06-14T18:16:25;7.13;;;2.35;;
15921;SDS011;8060;50.948;3.146;2023-06-14T18:18:55;5.43;;;2.50;;
15921;SDS011;8060;50.948;3.146;2023-06-14T18:21:23;8.15;;;3.30;;
15921;SDS011;8060;50.948;3.146;2023-06-14T18:23:51;9.02;;;3.50;;
15921;SDS011;8060;50.948;3.146;2023-06-14T18:26:21;6.80;;;3.10;;
15921;SDS011;8060;50.948;3.146;2023-06-14T18:28:52;6.80;;;2.92;;
15921;SDS011;8060;50.948;3.146;2023-06-14T18:31:21;7.25;;;2.65;;
15921;SDS011;8060;50.948;3.146;2023-06-14T18:33:49;4.10;;;2.67;;
15921;SDS011;8060;50.948;3.146;2023-06-14T18:36:18;6.20;;;2.90;;
15921;SDS011;8060;50.948;3.146;2023-06-14T18:38:46;7.78;;;3.20;;
15921;SDS011;8060;50.948;3.146;2023-06-14T18:41:15;6.45;;;2.92;;
15921;SDS011;8060;50.948;3.146;2023-06-14T18:43:43;7.00;;;3.35;;
15921;SDS011;8060;50.948;3.146;2023-06-14T18:46:12;9.85;;;3.25;;
15921;SDS011;8060;50.948;3.146;2023-06-14T18:48:40;7.18;;;3.30;;
15921;SDS011;8060;50.948;3.146;2023-06-14T18:51:10;5.28;;;2.53;;
15921;SDS011;8060;50.948;3.146;2023-06-14T18:53:39;5.72;;;2.30;;
15921;SDS011;8060;50.948;3.146;2023-06-14T18:56:07;3.85;;;2.00;;
15921;SDS011;8060;50.948;3.146;2023-06-14T18:58:36;4.07;;;2.00;;
15921;SDS011;8060;50.948;3.146;2023-06-14T19:01:04;3.85;;;2.03;;
15921;SDS011;8060;50.948;3.146;2023-06-14T19:03:32;6.60;;;2.20;;
15921;SDS011;8060;50.948;3.146;2023-06-14T19:06:01;6.97;;;2.40;;
15921;SDS011;8060;50.948;3.146;2023-06-14T19:08:29;7.32;;;4.13;;
15921;SDS011;8060;50.948;3.146;2023-06-14T19:10:58;5.25;;;3.30;;
15921;SDS011;8060;50.948;3.146;2023-06-14T19:13:26;5.78;;;2.10;;
15921;SDS011;8060;50.948;3.146;2023-06-14T19:15:57;3.38;;;2.30;;
15921;SDS011;8060;50.948;3.146;2023-06-14T19:18:25;4.32;;;1.90;;
